sensor_id;sensor_type;location;lat;lon;timestamp;P1;durP1;ratioP1;P2;durP2;ratioP2
46507;SDS011;32223;53.654;10.014;2024-03-02T00:01:11;26.20;;;13.02;;
46507;SDS011;32223;53.654;10.014;2024-03-02T00:03:37;24.08;;;13.25;;
46507;SDS011;32223;53.654;10.014;2024-03-02T00:06:03;20.92;;;12.10;;
46507;SDS011;32223;53.654;10.014;2024-03-02T00:08:29;23.75;;;13.10;;
46507;SDS011;32223;53.654;10.014;2024-03-02T00:10:59;24.85;;;13.63;;
46507;SDS011;32223;53.654;10.014;2024-03-02T00:13:25;29.05;;;13.35;;
46507;SDS011;32223;53.654;10.014;2024-03-02T00:15:52;24.88;;;12.90;;
46507;SDS011;32223;53.654;10.014;2024-03-02T00:18:40;24.60;;;12.82;;
46507;SDS011;32223;53.654;10.014;2024-03-02T00:23:31;27.35;;;14.02;;
46507;SDS011;32223;53.654;10.014;2024-03-02T00:25:58;24.27;;;12.75;;
46507;SDS011;32223;53.654;10.014;2024-03-02T00:28:27;25.20;;;14.05;;
46507;SDS011;32223;53.654;10.014;2024-03-02T00:30:55;26.83;;;13.80;;
46507;SDS011;32223;53.654;10.014;2024-03-02T00:33:23;26.05;;;13.77;;
46507;SDS011;32223;53.654;10.014;2024-03-02T00:35:51;30.73;;;14.52;;
46507;SDS011;32223;53.654;10.014;2024-03-02T00:38:18;25.02;;;13.55;;
46507;SDS011;32223;53.654;10.014;2024-03-02T00:40:44;23.88;;;13.23;;
46507;SDS011;32223;53.654;10.014;2024-03-02T00:43:12;27.65;;;14.00;;
46507;SDS011;32223;53.654;10.014;2024-03-02T00:45:53;27.48;;;14.25;;
46507;SDS011;32223;53.654;10.014;2024-03-02T00:48:20;25.65;;;14.23;;
46507;SDS011;32223;53.654;10.014;2024-03-02T00:50:45;28.00;;;15.00;;
46507;SDS011;32223;53.654;10.014;2024-03-02T00:53:11;28.30;;;14.90;;
46507;SDS011;32223;53.654;10.014;2024-03-02T00:55:38;31.42;;;15.13;;
46507;SDS011;32223;53.654;10.014;2024-03-02T00:58:04;29.30;;;15.52;;
46507;SDS011;32223;53.654;10.014;2024-03-02T01:00:30;28.27;;;15.15;;
46507;SDS011;32223;53.654;10.014;2024-03-02T01:02:55;31.27;;;16.10;;
46507;SDS011;32223;53.654;10.014;2024-03-02T01:05:21;31.05;;;15.77;;
46507;SDS011;32223;53.654;10.014;2024-03-02T01:07:46;30.33;;;16.08;;
46507;SDS011;32223;53.654;10.014;2024-03-02T01:10:12;31.48;;;15.50;;
46507;SDS011;32223;53.654;10.014;2024-03-02T01:12:38;30.17;;;16.33;;
46507;SDS011;32223;53.654;10.014;2024-03-02T01:15:04;30.00;;;15.73;;
46507;SDS011;32223;53.654;10.014;2024-03-02T01:17:33;34.17;;;17.58;;
46507;SDS011;32223;53.654;10.014;2024-03-02T01:19:58;31.30;;;15.65;;
46507;SDS011;32223;53.654;10.014;2024-03-02T01:22:24;27.20;;;16.20;;
46507;SDS011;32223;53.654;10.014;2024-03-02T01:24:50;29.33;;;17.60;;
46507;SDS011;32223;53.654;10.014;2024-03-02T01:27:16;34.65;;;17.55;;
46507;SDS011;32223;53.654;10.014;2024-03-02T01:29:42;29.33;;;16.23;;
46507;SDS011;32223;53.654;10.014;2024-03-02T01:32:07;32.03;;;17.05;;
46507;SDS011;32223;53.654;10.014;2024-03-02T01:34:33;39.05;;;17.45;;
46507;SDS011;32223;53.654;10.014;2024-03-02T01:36:58;29.63;;;16.50;;
46507;SDS011;32223;53.654;10.014;2024-03-02T01:39:24;31.20;;;16.45;;
46507;SDS011;32223;53.654;10.014;2024-03-02T01:41:49;32.47;;;17.50;;
46507;SDS011;32223;53.654;10.014;2024-03-02T01:44:15;32.60;;;16.73;;
46507;SDS011;32223;53.654;10.014;2024-03-02T01:46:41;34.35;;;17.20;;
46507;SDS011;32223;53.654;10.014;2024-03-02T01:49:06;34.13;;;16.90;;
46507;SDS011;32223;53.654;10.014;2024-03-02T01:51:32;31.60;;;17.85;;
46507;SDS011;32223;53.654;10.014;2024-03-02T01:53:58;33.08;;;18.23;;
46507;SDS011;32223;53.654;10.014;2024-03-02T01:56:23;35.53;;;20.25;;
46507;SDS011;32223;53.654;10.014;2024-03-02T01:58:49;34.97;;;17.85;;
46507;SDS011;32223;53.654;10.014;2024-03-02T02:01:14;35.13;;;17.67;;
46507;SDS011;32223;53.654;10.014;2024-03-02T02:03:41;37.72;;;19.38;;
46507;SDS011;32223;53.654;10.014;2024-03-02T02:06:08;34.42;;;18.58;;
46507;SDS011;32223;53.654;10.014;2024-03-02T02:08:34;41.13;;;19.42;;
46507;SDS011;32223;53.654;10.014;2024-03-02T02:11:02;31.35;;;17.77;;
46507;SDS011;32223;53.654;10.014;2024-03-02T02:13:28;40.40;;;19.63;;
46507;SDS011;32223;53.654;10.014;2024-03-02T02:15:53;37.30;;;19.08;;
46507;SDS011;32223;53.654;10.014;2024-03-02T02:18:19;39.22;;;19.23;;
46507;SDS011;32223;53.654;10.014;2024-03-02T02:20:44;37.42;;;19.10;;
46507;SDS011;32223;53.654;10.014;2024-03-02T02:23:10;37.30;;;19.30;;
46507;SDS011;32223;53.654;10.014;2024-03-02T02:25:35;37.67;;;20.63;;
46507;SDS011;32223;53.654;10.014;2024-03-02T02:28:01;42.50;;;21.98;;
46507;SDS011;32223;53.654;10.014;2024-03-02T02:30:28;40.22;;;21.75;;
46507;SDS011;32223;53.654;10.014;2024-03-02T02:32:55;45.83;;;21.98;;
46507;SDS011;32223;53.654;10.014;2024-03-02T02:35:20;40.75;;;20.95;;
46507;SDS011;32223;53.654;10.014;2024-03-02T02:37:47;43.47;;;21.23;;
46507;SDS011;32223;53.654;10.014;2024-03-02T02:40:13;44.03;;;22.17;;
46507;SDS011;32223;53.654;10.014;2024-03-02T02:42:39;46.55;;;22.30;;
46507;SDS011;32223;53.654;10.014;2024-03-02T02:45:08;45.80;;;21.40;;
46507;SDS011;32223;53.654;10.014;2024-03-02T02:47:33;45.22;;;21.90;;
46507;SDS011;32223;53.654;10.014;2024-03-02T02:50:00;44.30;;;20.92;;
46507;SDS011;32223;53.654;10.014;2024-03-02T02:52:32;40.78;;;21.63;;
46507;SDS011;32223;53.654;10.014;2024-03-02T02:55:03;45.28;;;21.75;;
46507;SDS011;32223;53.654;10.014;2024-03-02T02:57:30;42.88;;;20.90;;
46507;SDS011;32223;53.654;10.014;2024-03-02T03:00:00;42.72;;;20.42;;
46507;SDS011;32223;53.654;10.014;2024-03-02T03:02:29;51.03;;;21.60;;
46507;SDS011;32223;53.654;10.014;2024-03-02T03:04:55;41.60;;;21.27;;
46507;SDS011;32223;53.654;10.014;2024-03-02T03:07:22;44.35;;;22.92;;
46507;SDS011;32223;53.654;10.014;2024-03-02T03:09:48;44.40;;;21.35;;
46507;SDS011;32223;53.654;10.014;2024-03-02T03:12:13;42.67;;;21.95;;
46507;SDS011;32223;53.654;10.014;2024-03-02T03:14:40;41.05;;;22.95;;
46507;SDS011;32223;53.654;10.014;2024-03-02T03:17:06;49.47;;;23.02;;
46507;SDS011;32223;53.654;10.014;2024-03-02T03:19:33;47.63;;;21.58;;
46507;SDS011;32223;53.654;10.014;2024-03-02T03:21:58;48.10;;;22.77;;
46507;SDS011;32223;53.654;10.014;2024-03-02T03:24:24;42.38;;;21.92;;
46507;SDS011;32223;53.654;10.014;2024-03-02T03:26:50;39.92;;;21.40;;
46507;SDS011;32223;53.654;10.014;2024-03-02T03:29:15;42.40;;;23.27;;
46507;SDS011;32223;53.654;10.014;2024-03-02T03:31:41;43.92;;;21.35;;
46507;SDS011;32223;53.654;10.014;2024-03-02T03:34:07;46.58;;;21.73;;
46507;SDS011;32223;53.654;10.014;2024-03-02T03:36:32;41.88;;;21.92;;
46507;SDS011;32223;53.654;10.014;2024-03-02T03:38:58;47.22;;;22.67;;
46507;SDS011;32223;53.654;10.014;2024-03-02T03:41:24;46.70;;;22.85;;
46507;SDS011;32223;53.654;10.014;2024-03-02T03:43:49;40.90;;;22.27;;
46507;SDS011;32223;53.654;10.014;2024-03-02T03:46:15;42.88;;;21.55;;
46507;SDS011;32223;53.654;10.014;2024-03-02T03:48:40;42.35;;;21.48;;
46507;SDS011;32223;53.654;10.014;2024-03-02T03:51:07;41.05;;;21.92;;
46507;SDS011;32223;53.654;10.014;2024-03-02T03:53:32;43.53;;;20.50;;
46507;SDS011;32223;53.654;10.014;2024-03-02T03:55:58;43.05;;;21.77;;
46507;SDS011;32223;53.654;10.014;2024-03-02T03:58:23;45.58;;;22.02;;
46507;SDS011;32223;53.654;10.014;2024-03-02T04:00:49;39.72;;;22.38;;
46507;SDS011;32223;53.654;10.014;2024-03-02T04:03:14;44.40;;;22.33;;
46507;SDS011;32223;53.654;10.014;2024-03-02T04:05:40;45.70;;;22.10;;
46507;SDS011;32223;53.654;10.014;2024-03-02T04:08:06;39.63;;;20.67;;
46507;SDS011;32223;53.654;10.014;2024-03-02T04:10:31;43.58;;;21.98;;
46507;SDS011;32223;53.654;10.014;2024-03-02T04:12:57;45.15;;;21.55;;
46507;SDS011;32223;53.654;10.014;2024-03-02T04:15:23;37.35;;;20.40;;
46507;SDS011;32223;53.654;10.014;2024-03-02T04:17:48;40.00;;;20.38;;
46507;SDS011;32223;53.654;10.014;2024-03-02T04:20:14;42.33;;;20.60;;
46507;SDS011;32223;53.654;10.014;2024-03-02T04:22:39;37.42;;;19.88;;
46507;SDS011;32223;53.654;10.014;2024-03-02T04:25:05;44.78;;;20.65;;
46507;SDS011;32223;53.654;10.014;2024-03-02T04:27:32;41.35;;;20.52;;
46507;SDS011;32223;53.654;10.014;2024-03-02T04:29:58;39.17;;;19.83;;
46507;SDS011;32223;53.654;10.014;2024-03-02T04:32:25;38.78;;;19.63;;
46507;SDS011;32223;53.654;10.014;2024-03-02T04:34:51;41.70;;;21.13;;
46507;SDS011;32223;53.654;10.014;2024-03-02T04:37:17;34.42;;;19.05;;
46507;SDS011;32223;53.654;10.014;2024-03-02T04:39:42;36.60;;;19.48;;
46507;SDS011;32223;53.654;10.014;2024-03-02T04:42:08;34.50;;;19.00;;
46507;SDS011;32223;53.654;10.014;2024-03-02T04:44:34;35.70;;;19.80;;
46507;SDS011;32223;53.654;10.014;2024-03-02T04:46:59;36.75;;;19.70;;
46507;SDS011;32223;53.654;10.014;2024-03-02T04:49:25;36.83;;;20.30;;
46507;SDS011;32223;53.654;10.014;2024-03-02T04:51:50;37.17;;;18.23;;
46507;SDS011;32223;53.654;10.014;2024-03-02T04:54:16;35.00;;;18.73;;
46507;SDS011;32223;53.654;10.014;2024-03-02T04:56:42;33.35;;;18.05;;
46507;SDS011;32223;53.654;10.014;2024-03-02T04:59:14;35.40;;;18.40;;
46507;SDS011;32223;53.654;10.014;2024-03-02T05:01:40;35.47;;;16.92;;
46507;SDS011;32223;53.654;10.014;2024-03-02T05:04:06;39.28;;;18.55;;
46507;SDS011;32223;53.654;10.014;2024-03-02T05:06:31;29.25;;;17.45;;
46507;SDS011;32223;53.654;10.014;2024-03-02T05:08:57;32.17;;;17.13;;
46507;SDS011;32223;53.654;10.014;2024-03-02T05:11:23;32.70;;;17.63;;
46507;SDS011;32223;53.654;10.014;2024-03-02T05:14:13;31.00;;;17.35;;
46507;SDS011;32223;53.654;10.014;2024-03-02T05:16:39;34.22;;;17.45;;
46507;SDS011;32223;53.654;10.014;2024-03-02T05:19:06;30.92;;;18.48;;
46507;SDS011;32223;53.654;10.014;2024-03-02T05:21:32;31.15;;;17.23;;
46507;SDS011;32223;53.654;10.014;2024-03-02T05:23:59;32.20;;;18.25;;
46507;SDS011;32223;53.654;10.014;2024-03-02T05:26:24;34.80;;;18.20;;
46507;SDS011;32223;53.654;10.014;2024-03-02T05:28:50;38.80;;;19.50;;
46507;SDS011;32223;53.654;10.014;2024-03-02T05:31:15;31.65;;;17.95;;
46507;SDS011;32223;53.654;10.014;2024-03-02T05:33:41;33.30;;;18.38;;
46507;SDS011;32223;53.654;10.014;2024-03-02T05:36:07;31.35;;;18.05;;
46507;SDS011;32223;53.654;10.014;2024-03-02T05:38:36;36.03;;;18.27;;
46507;SDS011;32223;53.654;10.014;2024-03-02T05:41:02;31.35;;;17.25;;
46507;SDS011;32223;53.654;10.014;2024-03-02T05:43:28;32.15;;;17.77;;
46507;SDS011;32223;53.654;10.014;2024-03-02T05:45:54;29.58;;;17.25;;
46507;SDS011;32223;53.654;10.014;2024-03-02T05:48:19;31.40;;;17.55;;
46507;SDS011;32223;53.654;10.014;2024-03-02T05:50:45;31.73;;;16.33;;
46507;SDS011;32223;53.654;10.014;2024-03-02T05:53:10;31.63;;;17.27;;
46507;SDS011;32223;53.654;10.014;2024-03-02T05:55:36;30.77;;;16.23;;
46507;SDS011;32223;53.654;10.014;2024-03-02T05:58:02;31.08;;;18.30;;
46507;SDS011;32223;53.654;10.014;2024-03-02T06:00:30;32.83;;;17.23;;
46507;SDS011;32223;53.654;10.014;2024-03-02T06:02:56;28.30;;;16.27;;
46507;SDS011;32223;53.654;10.014;2024-03-02T06:05:22;32.38;;;17.58;;
46507;SDS011;32223;53.654;10.014;2024-03-02T06:07:48;31.92;;;15.98;;
46507;SDS011;32223;53.654;10.014;2024-03-02T06:10:14;31.48;;;17.02;;
46507;SDS011;32223;53.654;10.014;2024-03-02T06:12:39;28.52;;;15.63;;
46507;SDS011;32223;53.654;10.014;2024-03-02T06:15:06;30.77;;;16.60;;
46507;SDS011;32223;53.654;10.014;2024-03-02T06:17:32;30.90;;;17.63;;
46507;SDS011;32223;53.654;10.014;2024-03-02T06:19:57;35.38;;;19.48;;
46507;SDS011;32223;53.654;10.014;2024-03-02T06:22:23;29.77;;;17.30;;
46507;SDS011;32223;53.654;10.014;2024-03-02T06:24:58;30.92;;;17.02;;
46507;SDS011;32223;53.654;10.014;2024-03-02T06:27:24;26.70;;;15.77;;
46507;SDS011;32223;53.654;10.014;2024-03-02T06:29:52;27.83;;;15.57;;
46507;SDS011;32223;53.654;10.014;2024-03-02T06:32:19;32.72;;;17.35;;
46507;SDS011;32223;53.654;10.014;2024-03-02T06:34:46;32.65;;;17.75;;
46507;SDS011;32223;53.654;10.014;2024-03-02T06:37:12;30.83;;;16.95;;
46507;SDS011;32223;53.654;10.014;2024-03-02T06:39:38;30.05;;;16.35;;
46507;SDS011;32223;53.654;10.014;2024-03-02T06:42:04;29.42;;;16.52;;
46507;SDS011;32223;53.654;10.014;2024-03-02T06:44:35;28.38;;;15.63;;
46507;SDS011;32223;53.654;10.014;2024-03-02T06:47:04;30.27;;;16.92;;
46507;SDS011;32223;53.654;10.014;2024-03-02T06:49:30;30.58;;;15.70;;
46507;SDS011;32223;53.654;10.014;2024-03-02T06:52:01;27.58;;;15.60;;
46507;SDS011;32223;53.654;10.014;2024-03-02T06:54:27;27.67;;;16.05;;
46507;SDS011;32223;53.654;10.014;2024-03-02T06:56:57;31.67;;;16.35;;
46507;SDS011;32223;53.654;10.014;2024-03-02T06:59:23;33.53;;;17.73;;
46507;SDS011;32223;53.654;10.014;2024-03-02T07:01:49;29.70;;;16.73;;
46507;SDS011;32223;53.654;10.014;2024-03-02T07:04:15;30.88;;;17.60;;
46507;SDS011;32223;53.654;10.014;2024-03-02T07:06:41;30.27;;;16.33;;
46507;SDS011;32223;53.654;10.014;2024-03-02T07:09:07;27.88;;;16.35;;
46507;SDS011;32223;53.654;10.014;2024-03-02T07:11:36;28.48;;;16.95;;
46507;SDS011;32223;53.654;10.014;2024-03-02T07:14:01;34.53;;;17.23;;
46507;SDS011;32223;53.654;10.014;2024-03-02T07:16:27;30.77;;;18.13;;
46507;SDS011;32223;53.654;10.014;2024-03-02T07:18:55;30.60;;;16.63;;
46507;SDS011;32223;53.654;10.014;2024-03-02T07:21:22;30.08;;;17.45;;
46507;SDS011;32223;53.654;10.014;2024-03-02T07:23:48;28.25;;;15.75;;
46507;SDS011;32223;53.654;10.014;2024-03-02T07:26:14;31.30;;;16.80;;
46507;SDS011;32223;53.654;10.014;2024-03-02T07:28:40;31.65;;;18.00;;
46507;SDS011;32223;53.654;10.014;2024-03-02T07:31:07;31.23;;;15.85;;
46507;SDS011;32223;53.654;10.014;2024-03-02T07:33:33;27.90;;;14.90;;
46507;SDS011;32223;53.654;10.014;2024-03-02T07:35:59;26.05;;;15.52;;
46507;SDS011;32223;53.654;10.014;2024-03-02T07:38:31;26.50;;;14.32;;
46507;SDS011;32223;53.654;10.014;2024-03-02T07:40:58;25.95;;;15.85;;
46507;SDS011;32223;53.654;10.014;2024-03-02T07:43:25;27.17;;;14.95;;
46507;SDS011;32223;53.654;10.014;2024-03-02T07:45:51;29.17;;;15.52;;
46507;SDS011;32223;53.654;10.014;2024-03-02T07:48:17;28.02;;;14.85;;
46507;SDS011;32223;53.654;10.014;2024-03-02T07:50:43;28.63;;;14.80;;
46507;SDS011;32223;53.654;10.014;2024-03-02T07:53:08;23.17;;;14.27;;
46507;SDS011;32223;53.654;10.014;2024-03-02T07:55:34;24.48;;;13.80;;
46507;SDS011;32223;53.654;10.014;2024-03-02T07:58:00;27.98;;;13.75;;
46507;SDS011;32223;53.654;10.014;2024-03-02T08:00:26;27.10;;;14.85;;
46507;SDS011;32223;53.654;10.014;2024-03-02T08:02:55;28.23;;;15.57;;
46507;SDS011;32223;53.654;10.014;2024-03-02T08:05:21;21.52;;;12.98;;
46507;SDS011;32223;53.654;10.014;2024-03-02T08:07:46;25.40;;;14.10;;
46507;SDS011;32223;53.654;10.014;2024-03-02T08:10:13;23.45;;;13.95;;
46507;SDS011;32223;53.654;10.014;2024-03-02T08:12:39;24.17;;;12.95;;
46507;SDS011;32223;53.654;10.014;2024-03-02T08:15:04;24.75;;;13.98;;
46507;SDS011;32223;53.654;10.014;2024-03-02T08:17:31;22.48;;;12.93;;
46507;SDS011;32223;53.654;10.014;2024-03-02T08:19:56;20.42;;;12.90;;
46507;SDS011;32223;53.654;10.014;2024-03-02T08:22:23;20.98;;;12.65;;
46507;SDS011;32223;53.654;10.014;2024-03-02T08:24:51;24.33;;;14.57;;
46507;SDS011;32223;53.654;10.014;2024-03-02T08:27:17;21.05;;;12.65;;
46507;SDS011;32223;53.654;10.014;2024-03-02T08:29:43;21.10;;;12.45;;
46507;SDS011;32223;53.654;10.014;2024-03-02T08:32:08;22.48;;;13.13;;
46507;SDS011;32223;53.654;10.014;2024-03-02T08:34:34;24.35;;;13.23;;
46507;SDS011;32223;53.654;10.014;2024-03-02T08:37:01;30.42;;;16.27;;
46507;SDS011;32223;53.654;10.014;2024-03-02T08:39:27;23.83;;;14.25;;
46507;SDS011;32223;53.654;10.014;2024-03-02T08:41:53;25.15;;;14.48;;
46507;SDS011;32223;53.654;10.014;2024-03-02T08:44:19;22.58;;;13.13;;
46507;SDS011;32223;53.654;10.014;2024-03-02T08:46:45;24.25;;;13.10;;
46507;SDS011;32223;53.654;10.014;2024-03-02T08:49:11;25.60;;;13.50;;
46507;SDS011;32223;53.654;10.014;2024-03-02T08:51:37;24.45;;;13.90;;
46507;SDS011;32223;53.654;10.014;2024-03-02T08:54:03;24.98;;;15.48;;
46507;SDS011;32223;53.654;10.014;2024-03-02T08:56:29;22.33;;;13.63;;
46507;SDS011;32223;53.654;10.014;2024-03-02T08:58:55;26.00;;;14.48;;
46507;SDS011;32223;53.654;10.014;2024-03-02T09:01:21;21.50;;;12.30;;
46507;SDS011;32223;53.654;10.014;2024-03-02T09:03:46;24.88;;;14.38;;
46507;SDS011;32223;53.654;10.014;2024-03-02T09:06:14;22.02;;;13.65;;
46507;SDS011;32223;53.654;10.014;2024-03-02T09:08:41;26.15;;;14.20;;
46507;SDS011;32223;53.654;10.014;2024-03-02T09:11:08;25.15;;;14.10;;
46507;SDS011;32223;53.654;10.014;2024-03-02T09:13:34;24.17;;;14.18;;
46507;SDS011;32223;53.654;10.014;2024-03-02T09:16:00;21.92;;;14.00;;
46507;SDS011;32223;53.654;10.014;2024-03-02T09:18:26;25.85;;;14.73;;
46507;SDS011;32223;53.654;10.014;2024-03-02T09:20:52;24.83;;;13.30;;
46507;SDS011;32223;53.654;10.014;2024-03-02T09:23:17;24.05;;;13.73;;
46507;SDS011;32223;53.654;10.014;2024-03-02T09:25:43;21.85;;;12.73;;
46507;SDS011;32223;53.654;10.014;2024-03-02T09:28:09;22.10;;;12.80;;
46507;SDS011;32223;53.654;10.014;2024-03-02T09:30:35;22.20;;;12.65;;
46507;SDS011;32223;53.654;10.014;2024-03-02T09:33:01;21.48;;;13.25;;
46507;SDS011;32223;53.654;10.014;2024-03-02T09:35:26;21.38;;;13.93;;
46507;SDS011;32223;53.654;10.014;2024-03-02T09:37:52;16.55;;;10.75;;
46507;SDS011;32223;53.654;10.014;2024-03-02T09:40:17;22.58;;;13.15;;
46507;SDS011;32223;53.654;10.014;2024-03-02T09:42:47;22.63;;;13.15;;
46507;SDS011;32223;53.654;10.014;2024-03-02T09:45:21;19.58;;;12.55;;
46507;SDS011;32223;53.654;10.014;2024-03-02T09:47:48;22.38;;;12.15;;
46507;SDS011;32223;53.654;10.014;2024-03-02T09:50:14;20.13;;;11.77;;
46507;SDS011;32223;53.654;10.014;2024-03-02T09:52:40;21.08;;;12.15;;
46507;SDS011;32223;53.654;10.014;2024-03-02T09:55:13;19.40;;;11.57;;
46507;SDS011;32223;53.654;10.014;2024-03-02T09:57:42;17.17;;;10.40;;
46507;SDS011;32223;53.654;10.014;2024-03-02T10:00:08;17.83;;;10.20;;
46507;SDS011;32223;53.654;10.014;2024-03-02T10:02:34;19.42;;;11.23;;
46507;SDS011;32223;53.654;10.014;2024-03-02T10:04:59;18.33;;;11.77;;
46507;SDS011;32223;53.654;10.014;2024-03-02T10:07:25;16.20;;;10.40;;
46507;SDS011;32223;53.654;10.014;2024-03-02T10:09:50;16.73;;;10.63;;
46507;SDS011;32223;53.654;10.014;2024-03-02T10:12:17;19.73;;;11.60;;
46507;SDS011;32223;53.654;10.014;2024-03-02T10:14:43;17.33;;;10.55;;
46507;SDS011;32223;53.654;10.014;2024-03-02T10:17:13;17.88;;;10.00;;
46507;SDS011;32223;53.654;10.014;2024-03-02T10:19:40;17.65;;;11.25;;
46507;SDS011;32223;53.654;10.014;2024-03-02T10:22:07;19.23;;;11.18;;
46507;SDS011;32223;53.654;10.014;2024-03-02T10:27:19;19.73;;;10.57;;
46507;SDS011;32223;53.654;10.014;2024-03-02T10:29:48;17.15;;;10.07;;
46507;SDS011;32223;53.654;10.014;2024-03-02T10:32:15;17.33;;;10.77;;
46507;SDS011;32223;53.654;10.014;2024-03-02T10:34:42;16.15;;;10.23;;
46507;SDS011;32223;53.654;10.014;2024-03-02T10:37:12;19.80;;;9.80;;
46507;SDS011;32223;53.654;10.014;2024-03-02T10:39:40;15.35;;;9.88;;
46507;SDS011;32223;53.654;10.014;2024-03-02T10:42:06;16.23;;;9.90;;
46507;SDS011;32223;53.654;10.014;2024-03-02T10:44:32;16.63;;;10.57;;
46507;SDS011;32223;53.654;10.014;2024-03-02T10:47:02;16.90;;;10.32;;
46507;SDS011;32223;53.654;10.014;2024-03-02T10:49:29;16.33;;;9.50;;
46507;SDS011;32223;53.654;10.014;2024-03-02T10:51:57;19.55;;;10.70;;
46507;SDS011;32223;53.654;10.014;2024-03-02T10:54:26;15.18;;;9.27;;
46507;SDS011;32223;53.654;10.014;2024-03-02T10:56:55;16.23;;;8.80;;
46507;SDS011;32223;53.654;10.014;2024-03-02T10:59:27;13.43;;;8.48;;
46507;SDS011;32223;53.654;10.014;2024-03-02T11:01:58;14.70;;;8.95;;
46507;SDS011;32223;53.654;10.014;2024-03-02T11:04:26;16.65;;;10.73;;
46507;SDS011;32223;53.654;10.014;2024-03-02T11:06:58;16.48;;;9.35;;
46507;SDS011;32223;53.654;10.014;2024-03-02T11:09:28;12.88;;;7.93;;
46507;SDS011;32223;53.654;10.014;2024-03-02T11:12:15;14.48;;;8.32;;
46507;SDS011;32223;53.654;10.014;2024-03-02T11:14:48;13.77;;;7.90;;
46507;SDS011;32223;53.654;10.014;2024-03-02T11:17:19;36.63;;;13.02;;
46507;SDS011;32223;53.654;10.014;2024-03-02T11:19:45;23.63;;;11.40;;
46507;SDS011;32223;53.654;10.014;2024-03-02T11:22:12;17.92;;;9.13;;
46507;SDS011;32223;53.654;10.014;2024-03-02T11:24:38;63.95;;;18.60;;
46507;SDS011;32223;53.654;10.014;2024-03-02T11:27:04;114.07;;;38.85;;
46507;SDS011;32223;53.654;10.014;2024-03-02T11:32:06;768.75;;;280.70;;
46507;SDS011;32223;53.654;10.014;2024-03-02T11:34:39;675.05;;;223.50;;
46507;SDS011;32223;53.654;10.014;2024-03-02T11:37:11;264.63;;;87.30;;
46507;SDS011;32223;53.654;10.014;2024-03-02T11:39:39;41.70;;;18.02;;
46507;SDS011;32223;53.654;10.014;2024-03-02T11:42:05;94.25;;;34.03;;
46507;SDS011;32223;53.654;10.014;2024-03-02T11:44:33;91.60;;;35.22;;
46507;SDS011;32223;53.654;10.014;2024-03-02T11:47:00;111.07;;;39.92;;
46507;SDS011;32223;53.654;10.014;2024-03-02T11:49:36;58.38;;;22.00;;
46507;SDS011;32223;53.654;10.014;2024-03-02T11:52:05;75.13;;;30.63;;
46507;SDS011;32223;53.654;10.014;2024-03-02T11:54:32;28.60;;;13.10;;
46507;SDS011;32223;53.654;10.014;2024-03-02T11:57:02;20.50;;;9.45;;
46507;SDS011;32223;53.654;10.014;2024-03-02T11:59:31;12.90;;;6.90;;
46507;SDS011;32223;53.654;10.014;2024-03-02T12:01:57;13.45;;;7.47;;
46507;SDS011;32223;53.654;10.014;2024-03-02T12:04:24;11.00;;;6.05;;
46507;SDS011;32223;53.654;10.014;2024-03-02T12:06:54;8.57;;;5.50;;
46507;SDS011;32223;53.654;10.014;2024-03-02T12:09:24;10.45;;;6.30;;
46507;SDS011;32223;53.654;10.014;2024-03-02T12:12:09;15.40;;;8.07;;
46507;SDS011;32223;53.654;10.014;2024-03-02T12:14:36;9.90;;;4.90;;
46507;SDS011;32223;53.654;10.014;2024-03-02T12:17:03;9.65;;;4.82;;
46507;SDS011;32223;53.654;10.014;2024-03-02T12:19:30;7.70;;;4.88;;
46507;SDS011;32223;53.654;10.014;2024-03-02T12:21:56;8.10;;;4.60;;
46507;SDS011;32223;53.654;10.014;2024-03-02T12:24:22;8.73;;;4.78;;
46507;SDS011;32223;53.654;10.014;2024-03-02T12:26:49;8.32;;;5.43;;
46507;SDS011;32223;53.654;10.014;2024-03-02T12:29:16;11.85;;;5.47;;
46507;SDS011;32223;53.654;10.014;2024-03-02T12:31:42;9.63;;;4.55;;
46507;SDS011;32223;53.654;10.014;2024-03-02T12:34:10;7.30;;;4.55;;
46507;SDS011;32223;53.654;10.014;2024-03-02T12:36:38;8.52;;;5.03;;
46507;SDS011;32223;53.654;10.014;2024-03-02T12:39:04;10.30;;;5.60;;
46507;SDS011;32223;53.654;10.014;2024-03-02T12:41:30;10.85;;;5.68;;
46507;SDS011;32223;53.654;10.014;2024-03-02T12:43:56;9.90;;;6.00;;
46507;SDS011;32223;53.654;10.014;2024-03-02T12:46:21;12.98;;;5.88;;
46507;SDS011;32223;53.654;10.014;2024-03-02T12:48:47;10.90;;;5.63;;
46507;SDS011;32223;53.654;10.014;2024-03-02T12:51:12;9.80;;;5.55;;
46507;SDS011;32223;53.654;10.014;2024-03-02T12:53:39;11.25;;;6.70;;
46507;SDS011;32223;53.654;10.014;2024-03-02T12:56:05;8.18;;;5.07;;
46507;SDS011;32223;53.654;10.014;2024-03-02T12:58:31;13.38;;;6.50;;
46507;SDS011;32223;53.654;10.014;2024-03-02T13:01:06;8.00;;;5.10;;
46507;SDS011;32223;53.654;10.014;2024-03-02T13:03:40;7.80;;;5.40;;
46507;SDS011;32223;53.654;10.014;2024-03-02T13:06:06;11.15;;;6.75;;
46507;SDS011;32223;53.654;10.014;2024-03-02T13:08:33;12.30;;;6.85;;
46507;SDS011;32223;53.654;10.014;2024-03-02T13:10:59;10.32;;;6.78;;
46507;SDS011;32223;53.654;10.014;2024-03-02T13:13:25;10.50;;;6.60;;
46507;SDS011;32223;53.654;10.014;2024-03-02T13:15:54;12.98;;;7.72;;
46507;SDS011;32223;53.654;10.014;2024-03-02T13:18:21;10.82;;;7.40;;
46507;SDS011;32223;53.654;10.014;2024-03-02T13:20:47;12.25;;;6.93;;
46507;SDS011;32223;53.654;10.014;2024-03-02T13:23:12;15.13;;;7.57;;
46507;SDS011;32223;53.654;10.014;2024-03-02T13:25:39;18.48;;;8.05;;
46507;SDS011;32223;53.654;10.014;2024-03-02T13:28:04;18.55;;;6.93;;
46507;SDS011;32223;53.654;10.014;2024-03-02T13:30:31;10.95;;;6.63;;
46507;SDS011;32223;53.654;10.014;2024-03-02T13:32:57;8.07;;;5.70;;
46507;SDS011;32223;53.654;10.014;2024-03-02T13:35:23;11.13;;;5.13;;
46507;SDS011;32223;53.654;10.014;2024-03-02T13:37:48;9.95;;;5.95;;
46507;SDS011;32223;53.654;10.014;2024-03-02T13:40:15;9.63;;;5.95;;
46507;SDS011;32223;53.654;10.014;2024-03-02T13:42:45;9.02;;;5.68;;
46507;SDS011;32223;53.654;10.014;2024-03-02T13:45:11;8.75;;;5.63;;
46507;SDS011;32223;53.654;10.014;2024-03-02T13:47:37;13.52;;;6.50;;
46507;SDS011;32223;53.654;10.014;2024-03-02T13:50:03;10.27;;;5.57;;
46507;SDS011;32223;53.654;10.014;2024-03-02T13:52:30;15.50;;;5.63;;
46507;SDS011;32223;53.654;10.014;2024-03-02T13:54:56;11.50;;;6.30;;
46507;SDS011;32223;53.654;10.014;2024-03-02T13:57:21;9.52;;;5.65;;
46507;SDS011;32223;53.654;10.014;2024-03-02T13:59:47;9.63;;;6.47;;
46507;SDS011;32223;53.654;10.014;2024-03-02T14:02:13;12.13;;;5.65;;
46507;SDS011;32223;53.654;10.014;2024-03-02T14:04:38;9.93;;;6.55;;
46507;SDS011;32223;53.654;10.014;2024-03-02T14:07:04;13.00;;;7.90;;
46507;SDS011;32223;53.654;10.014;2024-03-02T14:09:33;9.75;;;6.00;;
46507;SDS011;32223;53.654;10.014;2024-03-02T14:11:59;10.70;;;6.00;;
46507;SDS011;32223;53.654;10.014;2024-03-02T14:14:27;10.82;;;5.90;;
46507;SDS011;32223;53.654;10.014;2024-03-02T14:16:56;8.43;;;5.70;;